Time;durP1;ratioP1;P1;durP2;ratioP2;P2;SDS_P1;SDS_P2;PMS_P1;PMS_P2;Temp;Humidity;BMP_temperature;BMP_pressure;BME280_temperature;BME280_humidity;BME280_pressure;Samples;Min_cycle;Max_cycle;Signal;HPM_P1;HPM_P2
2021/04/26 00:01:09;;;;;;;0.10;0.10;;;0.80;99.90;;;;;;5106311;28;20200;-81
2021/04/26 00:03:34;;;;;;;1.03;0.50;;;0.70;99.90;;;;;;5106465;28;20183;-80
2021/04/26 00:06:00;;;;;;;0.10;0.10;;;0.70;99.90;;;;;;5088041;28;20188;-80
2021/04/26 00:08:26;;;;;;;0.10;0.10;;;0.80;99.90;;;;;;5107416;28;20189;-80
2021/04/26 00:10:52;;;;;;;0.30;0.30;;;0.90;99.90;;;;;;5088484;28;20208;-81
2021/04/26 00:13:17;;;;;;;0.20;0.20;;;0.90;99.90;;;;;;5088093;28;20208;-80
2021/04/26 00:15:43;;;;;;;0.20;0.20;;;0.70;99.90;;;;;;5088360;28;20192;-81
2021/04/26 00:18:09;;;;;;;0.10;0.10;;;0.60;99.90;;;;;;5106150;28;20180;-80
2021/04/26 00:20:35;;;;;;;0.40;0.30;;;0.70;99.90;;;;;;5106439;28;20192;-81
2021/04/26 00:23:02;;;;;;;0.13;0.13;;;0.70;99.90;;;;;;5084567;28;20188;-81
2021/04/26 00:25:29;;;;;;;0.10;0.10;;;0.70;99.90;;;;;;5109520;27;20194;-81
2021/04/26 00:27:56;;;;;;;0.17;0.17;;;0.70;99.90;;;;;;5091128;28;20191;-81
2021/04/26 00:30:24;;;;;;;0.20;0.17;;;0.50;99.90;;;;;;5110376;27;20200;-80
2021/04/26 00:32:51;;;;;;;0.13;0.13;;;0.60;99.90;;;;;;5110470;28;20204;-82
2021/04/26 00:35:16;;;;;;;0.20;0.20;;;0.60;99.90;;;;;;5092810;28;20526;-82
2021/04/26 00:37:43;;;;;;;0.13;0.10;;;0.60;99.90;;;;;;5092716;28;20180;-81
2021/04/26 00:40:11;;;;;;;0.30;0.30;;;0.60;99.90;;;;;;5110234;27;20199;-82
2021/04/26 00:42:37;;;;;;;2.00;0.20;;;0.60;99.90;;;;;;5091998;28;20181;-81
2021/04/26 00:45:08;;;;;;;0.20;0.20;;;0.50;99.90;;;;;;5092597;28;20188;-82
2021/04/26 00:47:35;;;;;;;0.23;0.23;;;0.50;99.90;;;;;;5091741;28;20685;-80
2021/04/26 00:50:01;;;;;;;0.10;0.10;;;0.40;99.90;;;;;;5092830;27;21054;-81
2021/04/26 00:52:27;;;;;;;0.20;0.20;;;0.30;99.90;;;;;;5111130;27;20239;-81
2021/04/26 00:54:52;;;;;;;0.10;0.10;;;0.30;99.90;;;;;;5092404;28;20222;-82
2021/04/26 00:57:18;;;;;;;0.50;0.30;;;0.20;99.90;;;;;;5091662;28;20180;-81
2021/04/26 00:59:44;;;;;;;0.37;0.30;;;0.20;99.90;;;;;;5091663;28;20180;-81
2021/04/26 01:02:09;;;;;;;0.23;0.20;;;0.20;99.90;;;;;;5110299;28;20239;-79
2021/04/26 01:04:35;;;;;;;0.43;0.40;;;0.20;99.90;;;;;;5088415;28;20184;-81
2021/04/26 01:07:01;;;;;;;0.33;0.33;;;0.20;99.90;;;;;;5091485;28;20287;-82
2021/04/26 01:09:27;;;;;;;0.40;0.10;;;0.30;99.90;;;;;;5110187;27;20253;-80
2021/04/26 01:12:11;;;;;;;0.17;0.17;;;0.10;99.90;;;;;;5091783;28;20576;-80
2021/04/26 01:14:47;;;;;;;0.20;0.20;;;0.10;99.90;;;;;;5091837;28;20190;-83
2021/04/26 01:17:24;;;;;;;0.30;0.20;;;0.10;99.90;;;;;;5110707;28;20187;-80
2021/04/26 01:20:02;;;;;;;0.50;0.27;;;0.10;99.90;;;;;;5091923;28;20176;-81
2021/04/26 01:22:54;;;;;;;0.17;0.17;;;0.10;99.90;;;;;;5109984;28;20200;-82
2021/04/26 01:25:23;;;;;;;0.20;0.20;;;0.00;99.90;;;;;;5091160;28;20219;-81
2021/04/26 01:28:23;;;;;;;0.30;0.30;;;0.10;99.90;;;;;;5091645;28;20271;-82
2021/04/26 01:31:07;;;;;;;0.23;0.23;;;0.00;99.90;;;;;;5091982;28;20208;-82
2021/04/26 01:33:38;;;;;;;0.20;0.20;;;0.00;99.90;;;;;;5085039;28;20195;-82
2021/04/26 01:36:05;;;;;;;0.10;0.10;;;0.00;99.90;;;;;;5109397;27;20534;-82
2021/04/26 01:38:36;;;;;;;0.30;0.30;;;-0.10;99.90;;;;;;5090423;28;20176;-83
2021/04/26 01:41:03;;;;;;;0.87;0.40;;;-0.20;99.90;;;;;;5109126;28;20619;-81
2021/04/26 01:43:30;;;;;;;0.23;0.23;;;-0.20;99.90;;;;;;5089912;28;20822;-81
2021/04/26 01:45:59;;;;;;;0.10;0.10;;;-0.20;99.90;;;;;;5089771;28;21287;-81
2021/04/26 01:48:30;;;;;;;0.10;0.10;;;-0.20;99.90;;;;;;5090115;28;20187;-81
2021/04/26 01:50:58;;;;;;;0.10;0.10;;;-0.20;99.90;;;;;;5090193;28;20208;-81
2021/04/26 01:53:24;;;;;;;0.20;0.20;;;-0.20;99.90;;;;;;5090450;28;20172;-81
2021/04/26 01:55:55;;;;;;;0.20;0.20;;;-0.30;99.90;;;;;;5089985;28;20183;-81
2021/04/26 01:58:22;;;;;;;1.17;0.40;;;-0.30;99.90;;;;;;5090284;27;20188;-81
2021/04/26 02:00:47;;;;;;;0.30;0.30;;;-0.30;99.90;;;;;;5108689;27;21059;-81
2021/04/26 02:03:14;;;;;;;0.23;0.23;;;-0.30;99.90;;;;;;5090419;28;20187;-80
2021/04/26 02:05:40;;;;;;;0.20;0.20;;;-0.50;99.90;;;;;;5089449;28;20176;-82
2021/04/26 02:08:06;;;;;;;0.13;0.13;;;-0.40;99.90;;;;;;5088968;27;20681;-84
2021/04/26 02:10:32;;;;;;;0.17;0.17;;;-0.50;99.90;;;;;;5108041;27;20787;-83
2021/04/26 02:12:59;;;;;;;0.10;0.10;;;-0.60;99.90;;;;;;5089534;28;20211;-82
2021/04/26 02:15:27;;;;;;;0.20;0.20;;;-0.60;99.90;;;;;;5089502;28;20213;-81
2021/04/26 02:17:54;;;;;;;0.30;0.20;;;-0.70;99.90;;;;;;5089156;28;20172;-81
2021/04/26 02:20:19;;;;;;;0.20;0.20;;;-0.70;99.90;;;;;;5089562;28;20183;-82
2021/04/26 02:22:50;;;;;;;0.77;0.60;;;-0.80;99.90;;;;;;5089285;28;20187;-84
2021/04/26 02:25:16;;;;;;;0.30;0.30;;;-0.90;99.90;;;;;;5108489;27;20180;-86
2021/04/26 02:27:43;;;;;;;0.40;0.30;;;-0.90;99.90;;;;;;5089438;28;20550;-82
2021/04/26 02:30:10;;;;;;;0.40;0.40;;;-0.90;99.90;;;;;;5089376;28;20184;-81
2021/04/26 02:32:46;;;;;;;0.63;0.20;;;-0.90;99.90;;;;;;5089377;28;20199;-82
2021/04/26 02:35:15;;;;;;;0.33;0.30;;;-0.90;99.90;;;;;;5088683;28;20182;-83
2021/04/26 02:37:47;;;;;;;0.30;0.30;;;-0.90;99.90;;;;;;5089566;28;20184;-80
2021/04/26 02:40:15;;;;;;;0.20;0.20;;;-0.90;99.90;;;;;;5089379;28;20176;-80
2021/04/26 02:42:45;;;;;;;0.30;0.30;;;-0.70;99.90;;;;;;5107401;28;20187;-82
2021/04/26 02:45:14;;;;;;;0.30;0.30;;;-0.60;99.90;;;;;;5106211;28;20282;-82
2021/04/26 02:47:43;;;;;;;0.10;0.10;;;-0.60;99.90;;;;;;5088952;28;20180;-80
2021/04/26 02:50:11;;;;;;;0.17;0.17;;;-0.80;99.90;;;;;;5089530;28;20597;-80
2021/04/26 02:52:38;;;;;;;0.50;0.20;;;-0.70;99.90;;;;;;5089137;28;20204;-82
2021/04/26 02:55:06;;;;;;;0.10;0.10;;;-0.90;99.90;;;;;;5106776;27;20207;-79
2021/04/26 02:57:33;;;;;;;0.20;0.20;;;-0.90;99.90;;;;;;5088778;28;20670;-82
2021/04/26 03:00:03;;;;;;;0.50;0.40;;;-0.90;99.90;;;;;;5107449;27;20182;-81
2021/04/26 03:02:29;;;;;;;0.57;0.20;;;-0.80;99.90;;;;;;5088315;28;20261;-81
2021/04/26 03:04:56;;;;;;;0.20;0.20;;;-0.70;99.90;;;;;;5087918;28;20585;-82
2021/04/26 03:07:22;;;;;;;0.30;0.30;;;-0.80;99.90;;;;;;5088854;28;21096;-81
2021/04/26 03:09:49;;;;;;;0.43;0.30;;;-0.90;99.90;;;;;;5107056;28;20180;-81
2021/04/26 03:12:15;;;;;;;3.43;0.30;;;-1.00;99.90;;;;;;5088102;28;20211;-82
2021/04/26 03:14:41;;;;;;;0.10;0.10;;;-1.20;99.90;;;;;;5106556;28;20558;-82
2021/04/26 03:17:08;;;;;;;0.10;0.10;;;-1.10;99.90;;;;;;5088518;28;20633;-82
2021/04/26 03:19:36;;;;;;;0.33;0.33;;;-1.00;99.90;;;;;;5089124;28;20183;-81
2021/04/26 03:22:03;;;;;;;0.23;0.23;;;-1.00;99.90;;;;;;5106788;28;20203;-82
2021/04/26 03:24:29;;;;;;;0.30;0.30;;;-0.90;99.90;;;;;;5088343;28;20176;-82
2021/04/26 03:26:55;;;;;;;0.17;0.17;;;-1.00;99.90;;;;;;5090695;28;20288;-81
2021/04/26 03:29:22;;;;;;;0.20;0.20;;;-1.00;99.90;;;;;;5107062;28;20206;-81
2021/04/26 03:31:49;;;;;;;0.30;0.30;;;-0.90;99.90;;;;;;5106867;28;20203;-80
2021/04/26 03:34:15;;;;;;;0.63;0.30;;;-0.80;99.90;;;;;;5107377;28;20176;-83
2021/04/26 03:36:42;;;;;;;0.27;0.27;;;-0.90;99.90;;;;;;5089087;28;20296;-82
2021/04/26 03:39:09;;;;;;;0.33;0.33;;;-0.90;99.90;;;;;;5106731;28;20182;-81
2021/04/26 03:41:36;;;;;;;0.77;0.47;;;-1.10;99.90;;;;;;5088120;28;20232;-79
2021/04/26 03:44:03;;;;;;;0.23;0.23;;;-1.00;99.90;;;;;;5106936;28;20266;-80
2021/04/26 03:46:29;;;;;;;0.20;0.20;;;-1.00;99.90;;;;;;5106103;28;20215;-82
2021/04/26 03:48:55;;;;;;;0.93;0.30;;;-1.10;99.90;;;;;;5106675;28;20246;-81
2021/04/26 03:51:20;;;;;;;0.10;0.10;;;-1.10;99.90;;;;;;5106758;28;20269;-81
2021/04/26 03:53:46;;;;;;;0.30;0.30;;;-1.10;99.90;;;;;;5088253;28;20650;-79
2021/04/26 03:56:11;;;;;;;0.20;0.20;;;-1.00;99.90;;;;;;5107813;27;20255;-82
2021/04/26 03:58:37;;;;;;;0.50;0.27;;;-1.00;99.90;;;;;;5092490;28;20181;-81
2021/04/26 04:01:03;;;;;;;0.30;0.23;;;-1.10;99.90;;;;;;5092274;28;20198;-81
2021/04/26 04:03:28;;;;;;;0.30;0.30;;;-1.10;99.90;;;;;;5088431;28;20180;-81
2021/04/26 04:05:54;;;;;;;0.60;0.40;;;-1.20;99.90;;;;;;5110537;27;20184;-81
2021/04/26 04:08:21;;;;;;;0.30;0.20;;;-1.30;99.90;;;;;;5110672;28;20180;-82
2021/04/26 04:10:47;;;;;;;0.20;0.20;;;-1.40;99.90;;;;;;5092259;28;20200;-81
2021/04/26 04:13:12;;;;;;;0.30;0.30;;;-1.10;99.90;;;;;;5091766;27;20191;-80
2021/04/26 04:15:38;;;;;;;0.20;0.20;;;-1.10;99.90;;;;;;5091833;28;20684;-80
2021/04/26 04:18:04;;;;;;;0.20;0.20;;;-1.10;99.90;;;;;;5092980;28;20229;-80
2021/04/26 04:20:29;;;;;;;0.20;0.20;;;-1.00;99.90;;;;;;5091900;28;20215;-81
2021/04/26 04:22:55;;;;;;;0.40;0.40;;;-1.00;99.90;;;;;;5110419;27;20558;-81
2021/04/26 04:25:21;;;;;;;0.17;0.17;;;-0.90;99.90;;;;;;5110366;27;20184;-81
2021/04/26 04:27:46;;;;;;;0.10;0.10;;;-0.80;99.90;;;;;;5092331;28;20219;-83
2021/04/26 04:30:14;;;;;;;0.40;0.30;;;-0.70;99.90;;;;;;5091973;28;20189;-83
2021/04/26 04:32:40;;;;;;;0.10;0.10;;;-0.70;99.90;;;;;;5091887;28;21027;-81
2021/04/26 04:35:07;;;;;;;0.40;0.20;;;-0.70;99.90;;;;;;5092483;28;20223;-81
2021/04/26 04:37:33;;;;;;;0.17;0.17;;;-0.70;99.90;;;;;;5091412;28;20207;-80
2021/04/26 04:39:58;;;;;;;0.10;0.10;;;-0.60;99.90;;;;;;5110819;27;20184;-81
2021/04/26 04:42:24;;;;;;;0.30;0.30;;;-0.60;99.90;;;;;;5110659;28;20207;-82
2021/04/26 04:44:50;;;;;;;0.20;0.20;;;-0.60;99.90;;;;;;5089974;28;20560;-81
2021/04/26 04:47:15;;;;;;;0.10;0.10;;;-0.60;99.90;;;;;;5090919;28;20203;-81
2021/04/26 04:49:41;;;;;;;0.20;0.20;;;-0.30;99.90;;;;;;5092179;28;20190;-82
2021/04/26 04:52:08;;;;;;;0.53;0.40;;;0.20;99.90;;;;;;5110668;27;20223;-82
2021/04/26 04:54:33;;;;;;;0.63;0.40;;;1.00;99.90;;;;;;5092161;28;20212;-81
2021/04/26 04:56:59;;;;;;;0.23;0.23;;;1.00;99.90;;;;;;5110084;27;20218;-82
2021/04/26 04:59:25;;;;;;;0.60;0.57;;;1.60;99.90;;;;;;5110340;27;20180;-82
2021/04/26 05:01:50;;;;;;;0.40;0.23;;;2.50;99.90;;;;;;5091569;28;20204;-81
2021/04/26 05:04:16;;;;;;;0.20;0.20;;;3.50;99.90;;;;;;5109946;27;20267;-82
2021/04/26 05:06:41;;;;;;;0.70;0.40;;;4.00;99.90;;;;;;5091369;28;20558;-82
2021/04/26 05:09:08;;;;;;;0.60;0.50;;;4.60;99.90;;;;;;5109278;27;20181;-82
2021/04/26 05:11:34;;;;;;;0.63;0.30;;;5.30;99.90;;;;;;5091985;28;20208;-83
2021/04/26 05:14:00;;;;;;;0.43;0.30;;;5.40;99.90;;;;;;5109499;27;20184;-82
2021/04/26 05:16:27;;;;;;;0.30;0.30;;;5.70;99.90;;;;;;5081935;28;20294;-82
2021/04/26 05:18:52;;;;;;;0.30;0.30;;;6.10;99.90;;;;;;5091604;28;20185;-83
2021/04/26 05:21:19;;;;;;;0.50;0.40;;;6.30;99.90;;;;;;5084303;27;20211;-83
2021/04/26 05:23:45;;;;;;;0.53;0.30;;;6.70;99.90;;;;;;5108332;27;20176;-82
2021/04/26 05:26:11;;;;;;;2.37;0.30;;;7.00;99.90;;;;;;5089768;27;20865;-83
2021/04/26 05:28:36;;;;;;;0.43;0.30;;;7.10;99.90;;;;;;5108243;27;20180;-83
2021/04/26 05:31:02;;;;;;;0.77;0.40;;;7.40;99.90;;;;;;5090244;28;20252;-83
2021/04/26 05:33:28;;;;;;;0.20;0.20;;;7.80;99.90;;;;;;5091396;28;20177;-82
2021/04/26 05:35:53;;;;;;;0.30;0.30;;;8.20;98.40;;;;;;5110366;27;20188;-82
2021/04/26 05:38:19;;;;;;;0.20;0.20;;;8.50;96.40;;;;;;5110322;28;20188;-83
2021/04/26 05:40:47;;;;;;;0.20;0.20;;;8.70;95.70;;;;;;5091398;28;20257;-83
2021/04/26 05:43:14;;;;;;;0.20;0.20;;;9.00;94.00;;;;;;5092199;28;20566;-83
2021/04/26 05:45:41;;;;;;;0.50;0.50;;;9.40;92.40;;;;;;5111054;28;20180;-83
2021/04/26 05:48:07;;;;;;;2.13;0.40;;;9.20;92.60;;;;;;5112296;27;20278;-83
2021/04/26 05:50:33;;;;;;;0.40;0.23;;;9.00;91.80;;;;;;5111067;28;20200;-83
2021/04/26 05:52:59;;;;;;;0.30;0.30;;;8.70;92.50;;;;;;5093199;28;20212;-81
2021/04/26 05:55:25;;;;;;;0.60;0.47;;;8.10;92.90;;;;;;5091020;27;20254;-83
2021/04/26 05:57:51;;;;;;;0.50;0.50;;;7.00;97.00;;;;;;5108143;27;20204;-82
2021/04/26 06:00:17;;;;;;;1.33;0.60;;;6.00;99.90;;;;;;5089575;28;20226;-81
2021/04/26 06:02:43;;;;;;;0.80;0.70;;;5.30;99.90;;;;;;5086065;28;20726;-83
2021/04/26 06:05:08;;;;;;;0.40;0.40;;;5.10;99.90;;;;;;5089381;28;20188;-82
2021/04/26 06:07:34;;;;;;;0.47;0.30;;;4.70;99.90;;;;;;5107160;28;20560;-82
2021/04/26 06:10:00;;;;;;;0.20;0.20;;;4.70;99.90;;;;;;5091219;28;20191;-82
2021/04/26 06:12:26;;;;;;;0.20;0.20;;;4.90;99.90;;;;;;5094557;28;20256;-83
2021/04/26 06:14:51;;;;;;;0.23;0.23;;;4.90;99.90;;;;;;5095457;28;20184;-83
2021/04/26 06:17:17;;;;;;;0.20;0.20;;;5.20;99.90;;;;;;5093569;28;20184;-81
2021/04/26 06:19:42;;;;;;;0.30;0.30;;;5.50;99.90;;;;;;5111190;28;20259;-82
2021/04/26 06:22:08;;;;;;;0.40;0.40;;;5.80;99.90;;;;;;5111440;28;20241;-83
2021/04/26 06:24:34;;;;;;;0.30;0.30;;;6.20;99.90;;;;;;5110021;28;20184;-82
2021/04/26 06:26:59;;;;;;;0.20;0.20;;;6.50;99.90;;;;;;5091022;28;20272;-82
2021/04/26 06:29:25;;;;;;;0.33;0.20;;;6.90;99.90;;;;;;5107630;27;20237;-82
2021/04/26 06:31:50;;;;;;;0.40;0.40;;;7.00;99.90;;;;;;5088819;28;20219;-82
2021/04/26 06:34:16;;;;;;;0.30;0.30;;;7.10;99.90;;;;;;5088872;28;20190;-82
2021/04/26 06:36:41;;;;;;;0.70;0.40;;;6.90;99.90;;;;;;5107107;28;20187;-81
2021/04/26 06:39:07;;;;;;;0.20;0.20;;;6.70;99.90;;;;;;5089107;28;20190;-80
2021/04/26 06:41:33;;;;;;;0.20;0.20;;;6.50;99.90;;;;;;5106896;28;20286;-81
2021/04/26 06:43:58;;;;;;;0.30;0.30;;;6.30;99.90;;;;;;5106922;28;20194;-81
2021/04/26 06:46:24;;;;;;;0.37;0.37;;;6.00;99.90;;;;;;5109187;27;20557;-80
2021/04/26 06:48:50;;;;;;;0.30;0.30;;;5.90;99.90;;;;;;5109508;28;20245;-78
2021/04/26 06:51:15;;;;;;;0.50;0.30;;;5.90;99.90;;;;;;5110689;28;20208;-79
2021/04/26 06:53:41;;;;;;;0.30;0.30;;;6.00;99.90;;;;;;5121205;27;20185;-79
2021/04/26 06:56:06;;;;;;;0.33;0.20;;;6.00;99.90;;;;;;5115465;27;20204;-80
2021/04/26 06:58:32;;;;;;;0.30;0.30;;;6.00;99.90;;;;;;5093898;28;20176;-79
2021/04/26 07:00:57;;;;;;;0.20;0.20;;;6.20;99.90;;;;;;5094145;28;20204;-79
2021/04/26 07:03:23;;;;;;;0.20;0.20;;;6.50;99.90;;;;;;5088656;28;20172;-81
2021/04/26 07:05:48;;;;;;;6.17;0.57;;;6.80;99.90;;;;;;5088631;28;20245;-82
2021/04/26 07:08:14;;;;;;;0.20;0.20;;;7.00;99.90;;;;;;5088733;28;20186;-83
2021/04/26 07:10:40;;;;;;;0.20;0.20;;;7.10;99.90;;;;;;5107406;28;20328;-82
2021/04/26 07:13:05;;;;;;;0.20;0.20;;;7.30;99.90;;;;;;5088380;28;20223;-82
2021/04/26 07:15:31;;;;;;;0.17;0.17;;;7.60;99.90;;;;;;5088382;28;20287;-82
2021/04/26 07:17:57;;;;;;;0.90;0.60;;;7.80;99.80;;;;;;5089471;28;20195;-82
2021/04/26 07:20:23;;;;;;;0.30;0.30;;;8.00;98.10;;;;;;5090351;28;20897;-81
2021/04/26 07:22:48;;;;;;;0.30;0.20;;;8.30;97.50;;;;;;5108769;28;20198;-81
2021/04/26 07:25:14;;;;;;;0.77;0.40;;;8.50;96.40;;;;;;5090307;28;20184;-81
2021/04/26 07:27:41;;;;;;;0.37;0.37;;;8.60;96.00;;;;;;5108122;28;20660;-81
2021/04/26 07:30:07;;;;;;;0.30;0.30;;;8.80;95.80;;;;;;5108147;28;20195;-80
2021/04/26 07:32:33;;;;;;;0.60;0.30;;;9.20;89.60;;;;;;5112287;27;20208;-82
2021/04/26 07:34:59;;;;;;;0.20;0.20;;;9.60;90.40;;;;;;5112440;28;20553;-81
2021/04/26 07:37:25;;;;;;;0.20;0.20;;;9.90;88.70;;;;;;5111976;27;20249;-81
2021/04/26 07:39:52;;;;;;;0.20;0.20;;;9.80;83.00;;;;;;5093903;28;20187;-82
2021/04/26 07:42:20;;;;;;;0.30;0.20;;;9.90;81.90;;;;;;5112221;27;20239;-78
2021/04/26 07:44:46;;;;;;;0.20;0.20;;;10.20;83.70;;;;;;5112028;28;20199;-80
2021/04/26 07:47:12;;;;;;;0.30;0.30;;;10.20;79.10;;;;;;5093486;28;20547;-83
2021/04/26 07:49:39;;;;;;;0.20;0.20;;;10.50;82.30;;;;;;5111479;28;20189;-82
2021/04/26 07:52:04;;;;;;;1.37;0.40;;;10.60;82.40;;;;;;5094132;27;20204;-82
2021/04/26 07:54:30;;;;;;;0.30;0.30;;;10.70;80.80;;;;;;5112065;28;20210;-82
2021/04/26 07:56:56;;;;;;;0.20;0.20;;;10.30;79.50;;;;;;5111115;28;20192;-77
2021/04/26 07:59:21;;;;;;;0.43;0.30;;;10.50;79.40;;;;;;5112317;27;20183;-78
2021/04/26 08:01:47;;;;;;;0.30;0.20;;;10.90;78.70;;;;;;5111486;28;20266;-77
2021/04/26 08:04:13;;;;;;;0.20;0.20;;;11.10;77.00;;;;;;5112216;27;20184;-79
2021/04/26 08:06:39;;;;;;;0.33;0.33;;;11.30;70.60;;;;;;5093884;28;20584;-79
2021/04/26 08:09:07;;;;;;;0.30;0.30;;;11.40;72.90;;;;;;5112242;27;20754;-76
2021/04/26 08:11:32;;;;;;;0.30;0.27;;;11.00;67.50;;;;;;5092481;28;20235;-77
2021/04/26 08:13:58;;;;;;;0.50;0.40;;;11.10;70.40;;;;;;5094314;28;20211;-77
2021/04/26 08:16:23;;;;;;;1.10;0.30;;;11.00;68.90;;;;;;5116026;27;20196;-79
2021/04/26 08:18:49;;;;;;;0.20;0.20;;;11.00;70.60;;;;;;5116223;27;20188;-77
2021/04/26 08:21:15;;;;;;;0.60;0.27;;;11.20;68.10;;;;;;5112770;28;20200;-82
2021/04/26 08:23:43;;;;;;;1.20;0.63;;;11.10;69.10;;;;;;5110554;28;20579;-83
2021/04/26 08:26:09;;;;;;;0.20;0.20;;;11.50;69.40;;;;;;5091301;27;20233;-82
2021/04/26 08:28:35;;;;;;;0.30;0.20;;;11.20;68.80;;;;;;5109371;27;20172;-82
2021/04/26 08:31:02;;;;;;;0.37;0.37;;;11.40;69.50;;;;;;5091314;28;20720;-82
2021/04/26 08:33:30;;;;;;;0.40;0.40;;;11.40;67.90;;;;;;5091948;28;20233;-81
2021/04/26 08:35:56;;;;;;;0.53;0.33;;;11.30;66.90;;;;;;5092075;28;20234;-81
2021/04/26 08:38:21;;;;;;;0.43;0.40;;;11.30;68.60;;;;;;5092477;28;20188;-82
2021/04/26 08:40:47;;;;;;;0.53;0.40;;;11.20;66.80;;;;;;5092773;28;20288;-82
2021/04/26 08:43:13;;;;;;;0.97;0.50;;;11.00;68.60;;;;;;5110757;28;20187;-81
2021/04/26 08:45:38;;;;;;;0.20;0.20;;;11.20;67.20;;;;;;5092513;28;20180;-81
2021/04/26 08:48:06;;;;;;;0.80;0.40;;;11.50;66.60;;;;;;5092984;28;20194;-82
2021/04/26 08:50:32;;;;;;;0.30;0.30;;;11.70;64.80;;;;;;5113045;27;20211;-81
2021/04/26 08:52:58;;;;;;;0.57;0.30;;;11.30;64.90;;;;;;5111045;28;20204;-82
2021/04/26 08:55:24;;;;;;;0.37;0.30;;;11.50;64.40;;;;;;5092148;27;20536;-81
2021/04/26 08:57:50;;;;;;;0.47;0.40;;;11.50;63.70;;;;;;5110581;28;20182;-82
2021/04/26 09:00:18;;;;;;;0.50;0.40;;;11.50;63.00;;;;;;5092094;27;20279;-82
2021/04/26 09:02:53;;;;;;;0.20;0.20;;;11.50;63.50;;;;;;5112069;27;20188;-83
2021/04/26 09:05:28;;;;;;;0.70;0.60;;;11.30;63.90;;;;;;5099133;28;20188;-81
2021/04/26 09:07:57;;;;;;;0.30;0.30;;;11.60;64.90;;;;;;5091751;28;20184;-82
2021/04/26 09:10:35;;;;;;;0.57;0.33;;;11.60;64.10;;;;;;5110889;27;20279;-82
2021/04/26 09:13:24;;;;;;;0.57;0.30;;;11.30;63.20;;;;;;5111203;27;20204;-82
2021/04/26 09:15:56;;;;;;;0.57;0.57;;;11.30;63.60;;;;;;5091793;28;20192;-81
2021/04/26 09:18:41;;;;;;;0.30;0.30;;;11.00;64.00;;;;;;5110234;27;20212;-81
2021/04/26 09:21:37;;;;;;;0.57;0.30;;;10.70;62.70;;;;;;5092475;28;20215;-84
2021/04/26 09:24:25;;;;;;;0.30;0.30;;;11.20;65.20;;;;;;5109289;28;20280;-83
2021/04/26 09:26:53;;;;;;;0.67;0.63;;;11.50;64.00;;;;;;5093065;28;20184;-83
2021/04/26 09:29:31;;;;;;;0.67;0.67;;;11.70;63.40;;;;;;5092471;28;20179;-83
2021/04/26 09:32:11;;;;;;;0.40;0.40;;;11.90;63.10;;;;;;5092821;28;20218;-81
2021/04/26 09:34:51;;;;;;;0.60;0.43;;;12.00;62.50;;;;;;5109405;27;20176;-82
2021/04/26 09:37:18;;;;;;;0.47;0.33;;;12.40;62.00;;;;;;5093211;28;20687;-82
2021/04/26 09:40:03;;;;;;;0.33;0.33;;;11.60;59.30;;;;;;5110525;27;20172;-83
2021/04/26 09:42:42;;;;;;;0.77;0.73;;;10.80;60.90;;;;;;5092608;28;20203;-81
2021/04/26 09:45:25;;;;;;;0.30;0.30;;;10.90;60.70;;;;;;5111258;28;20668;-83
2021/04/26 09:48:14;;;;;;;0.40;0.30;;;11.10;61.60;;;;;;5094542;28;20181;-81
2021/04/26 09:51:02;;;;;;;0.30;0.30;;;11.20;61.40;;;;;;5111660;28;20200;-84
2021/04/26 09:53:35;;;;;;;0.60;0.60;;;11.00;62.20;;;;;;5101748;28;20188;-82
2021/04/26 09:56:15;;;;;;;0.50;0.50;;;10.70;61.90;;;;;;5108503;28;20307;-82
2021/04/26 09:58:43;;;;;;;0.60;0.53;;;10.30;62.10;;;;;;5092261;28;20168;-83
2021/04/26 10:01:09;;;;;;;0.30;0.30;;;10.20;61.10;;;;;;5109713;27;20188;-84
2021/04/26 10:03:34;;;;;;;0.60;0.50;;;10.60;62.60;;;;;;5090386;28;20595;-83
2021/04/26 10:06:00;;;;;;;0.60;0.60;;;11.00;62.00;;;;;;5111798;27;20183;-83
2021/04/26 10:08:27;;;;;;;0.40;0.40;;;11.30;60.10;;;;;;5110732;27;20184;-85
2021/04/26 10:10:53;;;;;;;1.03;0.50;;;11.90;59.40;;;;;;5090740;28;20234;-83
2021/04/26 10:13:21;;;;;;;0.40;0.40;;;12.30;60.60;;;;;;5090070;28;20235;-83
2021/04/26 10:15:56;;;;;;;0.50;0.40;;;12.60;59.60;;;;;;5108066;27;20328;-83
2021/04/26 10:18:28;;;;;;;0.60;0.50;;;13.00;59.20;;;;;;5108550;28;20203;-77
2021/04/26 10:20:54;;;;;;;0.43;0.43;;;13.40;60.00;;;;;;5112938;28;20254;-81
2021/04/26 10:23:40;;;;;;;0.40;0.40;;;13.90;58.20;;;;;;5114868;27;21100;-83
2021/04/26 10:26:07;;;;;;;0.50;0.43;;;13.50;56.90;;;;;;5088864;27;20179;-83
2021/04/26 10:28:36;;;;;;;0.80;0.67;;;12.60;59.50;;;;;;5094231;28;20191;-82
2021/04/26 10:31:12;;;;;;;0.65;0.50;;;12.00;59.40;;;;;;5110465;28;20263;-82
2021/04/26 10:33:58;;;;;;;0.40;0.40;;;12.10;59.70;;;;;;5108205;28;20637;-83
2021/04/26 10:36:56;;;;;;;1.10;0.50;;;12.50;58.50;;;;;;5107332;27;20602;-83
2021/04/26 10:39:23;;;;;;;0.53;0.50;;;12.40;58.00;;;;;;5105945;28;20178;-83
2021/04/26 10:42:19;;;;;;;0.50;0.50;;;12.00;59.40;;;;;;5107786;27;20211;-83
2021/04/26 10:44:50;;;;;;;0.50;0.50;;;12.20;58.50;;;;;;5085593;27;20188;-84
2021/04/26 10:47:24;;;;;;;0.63;0.50;;;12.20;58.00;;;;;;5108872;27;20187;-82
2021/04/26 10:50:14;;;;;;;1.40;0.70;;;11.80;59.20;;;;;;5097108;28;20294;-84
2021/04/26 10:52:54;;;;;;;0.40;0.40;;;11.90;59.90;;;;;;5107418;28;20238;-82
2021/04/26 10:55:19;;;;;;;0.37;0.37;;;11.70;58.90;;;;;;5088339;28;20176;-82
2021/04/26 10:57:51;;;;;;;0.67;0.63;;;11.80;59.10;;;;;;5089180;28;20176;-83
2021/04/26 11:00:37;;;;;;;0.70;0.60;;;11.50;57.80;;;;;;5107671;28;20219;-83
2021/04/26 11:03:05;;;;;;;0.43;0.43;;;11.00;60.10;;;;;;5073029;28;20184;-82
2021/04/26 11:05:45;;;;;;;0.53;0.53;;;11.00;60.30;;;;;;5106195;28;20173;-79
2021/04/26 11:13:54;;;;;;;1.77;0.50;;;12.40;59.00;;;;;;5106789;28;20238;-77
2021/04/26 11:16:27;;;;;;;0.40;0.40;;;13.00;58.30;;;;;;5106426;27;20188;-80
2021/04/26 11:18:58;;;;;;;0.40;0.40;;;13.40;58.50;;;;;;5107053;28;20182;-81
2021/04/26 11:21:47;;;;;;;0.60;0.40;;;13.60;56.60;;;;;;5106582;28;20192;-79
2021/04/26 11:24:35;;;;;;;0.88;0.70;;;13.80;58.90;;;;;;5105977;28;20255;-78
2021/04/26 11:27:13;;;;;;;0.52;0.50;;;14.00;57.50;;;;;;5086678;28;20228;-80
2021/04/26 11:29:41;;;;;;;0.50;0.50;;;14.10;56.10;;;;;;5106810;28;20180;-80
2021/04/26 11:32:10;;;;;;;0.50;0.50;;;14.30;56.10;;;;;;5106637;28;20271;-78
2021/04/26 11:34:48;;;;;;;0.50;0.40;;;14.10;54.40;;;;;;5106944;28;20176;-77
2021/04/26 11:37:22;;;;;;;0.40;0.40;;;13.90;55.60;;;;;;5105100;28;20176;-78
2021/04/26 11:39:54;;;;;;;0.50;0.50;;;14.30;55.40;;;;;;5104008;28;20172;-78
2021/04/26 11:42:21;;;;;;;0.90;0.75;;;14.10;54.70;;;;;;5085431;28;20493;-78
2021/04/26 11:44:47;;;;;;;0.70;0.52;;;13.40;55.50;;;;;;5104577;28;20199;-80
2021/04/26 11:47:15;;;;;;;0.50;0.50;;;12.50;56.40;;;;;;5086629;28;20189;-79
2021/04/26 11:49:45;;;;;;;0.45;0.43;;;12.30;57.30;;;;;;5105276;28;20183;-80
2021/04/26 11:52:18;;;;;;;1.90;0.70;;;12.00;58.00;;;;;;5086366;28;20219;-78
2021/04/26 11:54:53;;;;;;;1.43;0.50;;;11.90;57.70;;;;;;5086317;28;20169;-78
2021/04/26 11:57:22;;;;;;;0.80;0.80;;;11.60;57.60;;;;;;5105841;28;20183;-75
2021/04/26 12:00:00;;;;;;;0.63;0.60;;;11.20;58.80;;;;;;5086420;28;20667;-80
2021/04/26 12:02:44;;;;;;;1.00;0.70;;;11.20;58.20;;;;;;5104655;28;20665;-78
2021/04/26 12:05:11;;;;;;;3.17;0.80;;;11.40;58.10;;;;;;5085790;28;20278;-78
2021/04/26 12:07:38;;;;;;;0.67;0.67;;;11.50;58.20;;;;;;5105209;28;20281;-77
2021/04/26 12:10:24;;;;;;;0.50;0.50;;;11.70;58.00;;;;;;5104407;28;20187;-79
2021/04/26 12:12:53;;;;;;;3.83;1.67;;;11.60;57.20;;;;;;5103879;28;20291;-77
2021/04/26 12:15:22;;;;;;;0.93;0.50;;;11.90;58.00;;;;;;5104034;28;20200;-79
2021/04/26 12:17:53;;;;;;;1.27;0.50;;;12.40;57.10;;;;;;5088325;28;20553;-77
2021/04/26 12:20:25;;;;;;;1.17;1.03;;;12.50;58.00;;;;;;5109486;27;20268;-77
2021/04/26 12:23:19;;;;;;;0.68;0.68;;;12.70;56.90;;;;;;5109249;28;20180;-78
2021/04/26 12:25:45;;;;;;;2.45;0.80;;;13.20;56.60;;;;;;5108796;27;20196;-78
2021/04/26 12:28:15;;;;;;;0.40;0.40;;;13.50;57.20;;;;;;5109500;27;20181;-77
2021/04/26 12:30:42;;;;;;;1.40;0.75;;;13.80;55.40;;;;;;5109358;28;20192;-76
2021/04/26 12:33:33;;;;;;;1.40;0.50;;;13.60;54.10;;;;;;5091603;28;20208;-79
2021/04/26 12:36:02;;;;;;;0.45;0.40;;;13.80;54.30;;;;;;5078594;28;20184;-79
2021/04/26 12:38:35;;;;;;;0.43;0.43;;;14.10;54.30;;;;;;5090762;28;20177;-79
2021/04/26 12:41:01;;;;;;;0.93;0.77;;;14.40;54.00;;;;;;5090841;28;20211;-79
2021/04/26 12:43:32;;;;;;;1.80;0.70;;;14.70;54.30;;;;;;5090786;28;20184;-78
2021/04/26 12:46:07;;;;;;;0.88;0.57;;;14.70;54.50;;;;;;5108024;27;20593;-79
2021/04/26 12:48:34;;;;;;;1.33;0.70;;;14.30;55.60;;;;;;5089457;28;20262;-77
2021/04/26 12:51:02;;;;;;;1.63;0.60;;;13.70;55.30;;;;;;5089327;28;20250;-78
2021/04/26 12:53:28;;;;;;;0.90;0.60;;;13.30;55.80;;;;;;5107257;27;20207;-76
2021/04/26 12:56:02;;;;;;;0.70;0.70;;;13.00;55.90;;;;;;5086015;28;20184;-76
2021/04/26 12:58:32;;;;;;;0.47;0.40;;;12.60;56.10;;;;;;5086073;28;20179;-75
2021/04/26 13:01:04;;;;;;;0.40;0.40;;;12.60;55.40;;;;;;5105793;28;20224;-77
2021/04/26 13:03:34;;;;;;;0.53;0.47;;;12.80;56.50;;;;;;5105696;27;20244;-76
2021/04/26 13:06:21;;;;;;;0.77;0.47;;;12.40;56.50;;;;;;5105788;27;20173;-77